Terminal Aerodrome Forecast
Issued by NWS

Current Version | Previous Version | Text Only | Print | Product List | Glossary On
Versions: 1 2 3 4 5 6 7 8 9 10 11 12 13 14 15 16 17 18 19 20 21 22 23 24 25 26 27 28 29 30 31 32 33 34 35 36 37 38 39 40 41 42 43
000
FTUS44 KHGX 300520 CCA
TAFLBX
TAF COR
KLBX 300520Z 3005/3106 00000KT 6SM BR MIFG BKN250
      TEMPO 3005/3007 3SM BR
     FM300700 36006KT P6SM SCT050 BKN250
     FM301100 02012KT P6SM BKN250
     FM301500 05014KT P6SM BKN250=

USA.gov is the U.S. government's official web portal to all federal, state and local government web resources and services.